Weather reports worldwide

Advertisment
Zeebrugge, Belgium (6418): temperature & dewpoint: 17.10.2020 23:00:00 - 23.10.2020 23:00:00 (CEST)Zeebrugge, Belgium (6418): wind speed & gusts: 17.10.2020 23:00:00 - 23.10.2020 23:00:00 (CEST)Zeebrugge, Belgium (6418): wind direction: 17.10.2020 23:00:00 - 23.10.2020 23:00:00 (CEST)Zeebrugge, Belgium (6418): reduced air pressure: 17.10.2020 23:00:00 - 23.10.2020 23:00:00 (CEST)Zeebrugge, Belgium (6418): sunshine duration: 17.10.2020 23:00:00 - 23.10.2020 23:00:00 (CEST)Zeebrugge, Belgium (6418): precipitation: 17.10.2020 23:00:00 - 23.10.2020 23:00:00 (CEST)
Date & Time tt [°C] td [°C] ff [km/h] ff [kn] fx [km/h] fx [kn] dd ppp [hPa] sd [min] rr [mm]
23.10.2020 23:00:00 12,8 9,6 22 12 - - SSW 1011,3 - -
23.10.2020 22:00:00 13,8 10,6 23 13 48 26 SW 1010,6 0 0,0
23.10.2020 21:00:00 14,2 11,1 24 13 38 21 SW 1010,5 0 0,1
23.10.2020 20:00:00 14,3 10,6 29 16 35 19 SSW 1009,9 0 0,0
23.10.2020 19:00:00 14,9 10,4 28 15 40 21 SSW 1009,7 1 0,0
23.10.2020 18:00:00 15,6 10,5 28 15 41 22 SSW 1009,2 9 0,0
23.10.2020 17:00:00 16,0 10,8 29 15 39 21 SSW 1009,2 16 0,0
23.10.2020 16:00:00 16,4 11,8 27 15 35 19 SSW 1009,1 30 0,0
23.10.2020 15:00:00 16,4 12,6 24 13 39 21 SW 1009,7 48 0,0
23.10.2020 14:00:00 16,0 14,2 22 12 30 16 SSW 1009,4 60 0,0
23.10.2020 13:00:00 14,6 13,4 19 11 32 17 SSW 1009,7 47 0,0
23.10.2020 12:00:00 13,1 12,2 18 10 23 13 S 1010,1 35 0,0
23.10.2020 11:00:00 12,2 11,3 17 9 24 13 S 1010,1 27 0,0
23.10.2020 10:00:00 11,0 10,0 10 6 16 9 S 1010,2 3 0,0
23.10.2020 09:00:00 10,9 9,8 10 5 16 8 S 1010,2 0 0,0
23.10.2020 08:00:00 11,1 9,8 11 6 19 10 S 1010,1 0 0,0
23.10.2020 07:00:00 11,2 9,7 14 8 18 10 SSE 1010,2 0 0,0
23.10.2020 06:00:00 11,9 10,3 9 5 12 7 SSW 1010,6 0 0,0
23.10.2020 05:00:00 11,9 10,3 8 4 13 7 S 1011,1 0 0,0
23.10.2020 04:00:00 12,3 10,6 8 5 15 8 S 1011,6 0 0,0
23.10.2020 03:00:00 12,2 10,5 11 6 19 10 S 1011,9 0 0,0
23.10.2020 02:00:00 11,8 9,9 11 6 17 9 SSW 1012,1 0 0,0
23.10.2020 01:00:00 12,2 10,2 14 7 21 12 SW 1012,0 0 0,0
23.10.2020 00:00:00 12,3 10,0 15 8 21 12 SW 1012,0 0 0,0
22.10.2020 23:00:00 12,6 10,0 16 9 23 13 SSW 1012,2 0 0,0
22.10.2020 22:00:00 12,9 10,2 16 9 25 13 SSW 1012,0 0 0,0
22.10.2020 21:00:00 13,5 10,5 14 8 24 13 SW 1011,6 0 0,0
22.10.2020 20:00:00 13,7 10,3 18 10 21 12 SSW 1011,6 0 0,0
22.10.2020 19:00:00 14,8 10,3 19 10 31 17 SW 1011,1 33 0,0
22.10.2020 18:00:00 15,8 10,3 19 11 36 19 SW 1010,7 60 0,0
22.10.2020 17:00:00 16,1 10,3 27 14 44 24 SW 1010,4 60 0,0
22.10.2020 16:00:00 16,0 11,7 26 14 38 20 SSW 1010,4 48 0,0
22.10.2020 15:00:00 15,2 11,7 32 17 42 23 SSW 1010,2 38 0,1
22.10.2020 14:00:00 14,7 11,2 25 14 41 22 SSW 1010,9 0 0,0
22.10.2020 13:00:00 14,7 11,5 26 14 37 20 S 1010,8 5 0,0
22.10.2020 12:00:00 13,9 11,3 25 14 39 21 S 1010,7 8 0,0
22.10.2020 11:00:00 12,9 10,6 27 15 37 20 S 1010,4 48 0,0
22.10.2020 10:00:00 12,7 10,7 27 15 38 21 S 1010,1 49 0,0
22.10.2020 09:00:00 12,1 10,3 24 13 35 19 SSW 1009,3 11 0,0
22.10.2020 08:00:00 12,5 10,7 29 16 38 21 SSW 1008,6 0 0,0
22.10.2020 07:00:00 12,6 10,8 24 13 38 21 SSW 1008,6 0 0,0
22.10.2020 06:00:00 13,0 11,2 28 15 40 22 SSW 1008,5 0 0,0
22.10.2020 05:00:00 13,3 11,5 29 15 38 20 SSW 1008,2 0 0,0
22.10.2020 04:00:00 13,8 12,0 26 14 38 20 SSW 1007,7 0 0,0
22.10.2020 03:00:00 14,1 12,4 23 12 34 18 SSW 1007,8 0 0,0
22.10.2020 02:00:00 14,1 12,4 25 14 35 19 SSW 1007,4 0 0,0
22.10.2020 01:00:00 14,4 12,5 30 16 42 23 SSW 1006,5 0 0,0
22.10.2020 00:00:00 14,7 12,5 27 15 38 21 SSW 1006,0 0 0,0
21.10.2020 23:00:00 14,3 11,9 26 14 35 19 SSW 1005,5 0 0,0
21.10.2020 22:00:00 14,7 11,8 26 14 49 26 SSW 1004,9 0 0,0
21.10.2020 21:00:00 15,7 12,7 34 19 56 30 SW 1003,8 0 0,1
21.10.2020 20:00:00 15,8 12,9 47 25 72 39 SSW 1002,0 0 0,1
21.10.2020 19:00:00 15,9 12,9 45 24 69 37 SW 999,9 0 0,2
21.10.2020 18:00:00 17,7 11,8 52 28 73 39 SSW 998,8 0 0,0
21.10.2020 17:00:00 18,0 13,3 47 25 71 38 SSW 997,4 2 0,0
21.10.2020 16:00:00 17,7 13,0 51 28 91 49 SSW 996,1 13 0,2
21.10.2020 15:00:00 19,0 12,9 56 30 87 47 S 993,9 3 0,1
21.10.2020 14:00:00 18,6 12,7 47 25 82 44 S 994,5 6 0,1
21.10.2020 13:00:00 17,5 13,0 54 29 78 42 S 994,3 21 0,0
21.10.2020 12:00:00 15,0 13,3 38 20 49 26 SSE 995,6 0 0,0
21.10.2020 11:00:00 13,6 12,4 33 18 50 27 SSE 997,1 0 0,1
21.10.2020 10:00:00 13,4 12,2 39 21 53 29 SSE 998,3 0 0,1
21.10.2020 09:00:00 13,3 12,2 34 18 52 28 SSE 998,7 0 0,1
21.10.2020 08:00:00 13,2 12,1 32 18 40 22 SSE 999,2 0 1,1
21.10.2020 07:00:00 13,4 12,2 27 15 38 21 SSE 1000,6 0 0,2
21.10.2020 06:00:00 13,5 12,1 24 13 39 21 SSE 1001,3 0 0,3
21.10.2020 05:00:00 13,8 12,2 25 14 34 18 SSE 1001,7 0 0,0
21.10.2020 04:00:00 14,0 12,2 24 13 31 17 SSE 1002,6 0 0,0
21.10.2020 03:00:00 14,4 12,4 24 13 35 19 SSE 1003,4 0 0,0
21.10.2020 02:00:00 14,9 12,6 25 14 41 22 S 1003,7 0 0,0
21.10.2020 01:00:00 15,0 12,7 29 15 40 22 S 1004,2 0 0,0
21.10.2020 00:00:00 14,9 12,6 30 16 48 26 S 1004,5 0 0,0
20.10.2020 23:00:00 14,9 12,5 36 19 53 29 S 1004,5 0 0,1
20.10.2020 22:00:00 14,9 12,5 38 21 48 26 S 1004,6 0 0,0
20.10.2020 21:00:00 14,5 11,9 34 18 51 28 S 1005,1 0 0,0
20.10.2020 20:00:00 14,9 11,7 32 18 48 26 S 1005,2 0 0,0
20.10.2020 19:00:00 15,2 11,5 27 14 49 27 S 1005,5 0 0,0
20.10.2020 18:00:00 15,5 11,2 38 20 50 27 S 1004,9 0 0,0
20.10.2020 17:00:00 15,2 11,3 34 18 49 27 S 1005,3 0 0,0
20.10.2020 16:00:00 14,6 11,3 33 18 46 25 S 1005,5 0 0,0
20.10.2020 15:00:00 14,4 10,8 33 18 42 23 S 1005,9 0 0,0
20.10.2020 14:00:00 14,4 10,7 32 18 50 27 S 1005,9 0 0,0
20.10.2020 13:00:00 13,7 9,9 36 19 47 25 S 1005,9 8 0,0
20.10.2020 12:00:00 13,2 9,5 32 17 45 25 S 1006,0 0 0,0
20.10.2020 11:00:00 12,7 8,6 32 18 42 23 S 1006,2 0 0,0
20.10.2020 10:00:00 12,4 8,2 31 17 44 24 S 1006,1 0 0,0
20.10.2020 09:00:00 11,9 7,9 26 14 35 19 S 1006,2 0 0,0
20.10.2020 08:00:00 11,8 7,3 36 19 44 24 S 1005,8 0 0,0
20.10.2020 07:00:00 11,7 7,3 33 18 44 24 S 1005,8 0 0,0
20.10.2020 06:00:00 11,2 6,8 28 15 42 23 S 1006,7 0 0,0
20.10.2020 05:00:00 10,7 6,4 34 18 44 24 SSE 1006,3 0 0,0
20.10.2020 04:00:00 10,3 5,8 34 18 43 23 SSE 1007,7 0 0,0
20.10.2020 03:00:00 10,6 5,9 36 19 44 24 SSE 1008,5 0 0,0
20.10.2020 02:00:00 10,6 6,2 32 18 40 21 SSE 1009,6 0 0,0
20.10.2020 01:00:00 10,5 6,2 29 16 39 21 SE 1010,5 0 0,0
20.10.2020 00:00:00 10,8 6,6 28 15 36 20 SE 1011,6 0 0,0
19.10.2020 23:00:00 11,2 6,9 26 14 31 17 SE 1012,7 0 0,0
19.10.2020 22:00:00 11,6 7,2 22 12 29 16 SE 1013,9 0 0,0
19.10.2020 21:00:00 11,8 7,3 24 13 29 16 SE 1014,3 0 0,0
19.10.2020 20:00:00 12,0 7,2 18 10 25 13 SE 1015,5 0 0,0
19.10.2020 19:00:00 12,8 7,5 20 11 29 15 SE 1015,8 0 0,0
19.10.2020 18:00:00 13,2 7,8 22 12 31 17 SE 1016,2 20 0,0
19.10.2020 17:00:00 13,4 7,7 24 13 34 18 SSE 1017,0 52 0,0
19.10.2020 16:00:00 13,6 7,7 23 13 32 17 S 1017,9 58 0,0
19.10.2020 15:00:00 13,7 7,5 24 13 34 19 S 1018,6 55 0,0
19.10.2020 14:00:00 13,4 8,1 25 14 34 19 S 1019,6 60 0,0
19.10.2020 13:00:00 12,7 8,6 24 13 31 17 S 1020,3 18 0,0
19.10.2020 12:00:00 11,5 7,6 16 9 25 14 S 1020,9 0 0,0
19.10.2020 11:00:00 11,0 7,2 19 10 23 12 SSE 1021,0 0 0,0
19.10.2020 10:00:00 10,4 6,7 20 11 25 14 S 1021,4 0 0,0
19.10.2020 09:00:00 10,4 6,6 19 10 28 15 S 1021,1 0 0,0
19.10.2020 08:00:00 10,6 6,9 22 12 25 14 S 1021,1 0 0,0
19.10.2020 07:00:00 10,4 7,3 14 8 21 11 S 1021,6 0 0,0
19.10.2020 06:00:00 10,4 7,4 18 10 21 12 S 1021,6 0 0,0
19.10.2020 05:00:00 10,6 7,4 13 7 21 11 S 1022,1 0 0,0
19.10.2020 04:00:00 10,7 7,5 13 7 20 11 SSW 1022,7 0 0,0
19.10.2020 03:00:00 10,5 8,0 15 8 21 11 SSW 1023,1 0 0,0
19.10.2020 02:00:00 10,5 8,1 11 6 18 10 SSW 1022,9 0 0,0
19.10.2020 01:00:00 10,4 7,4 16 9 22 12 SSW 1023,3 0 0,0
19.10.2020 00:00:00 10,8 7,2 6 3 16 8 SW 1023,4 0 0,0
18.10.2020 23:00:00 11,1 7,3 8 5 23 12 NW 1023,3 0 0,0
18.10.2020 22:00:00 11,1 7,0 8 4 17 9 NW 1023,2 0 0,0
18.10.2020 21:00:00 11,2 7,3 11 6 25 13 WNW 1023,2 0 0,0
18.10.2020 20:00:00 11,2 6,6 22 12 28 15 NW 1023,3 0 0,0
18.10.2020 19:00:00 12,1 6,7 10 5 17 9 WNW 1022,9 17 0,0
18.10.2020 18:00:00 12,3 7,2 12 6 19 11 WNW 1022,7 0 0,0
18.10.2020 17:00:00 12,7 7,6 13 7 25 14 WNW 1022,8 7 0,1
18.10.2020 16:00:00 12,7 7,7 17 9 23 12 NW 1022,9 10 0,0
18.10.2020 15:00:00 13,3 9,2 9 5 13 7 W 1023,3 0 0,0
18.10.2020 14:00:00 12,3 9,8 4 2 19 11 NNE 1023,5 4 0,0
18.10.2020 13:00:00 11,9 9,7 17 9 24 13 N 1024,0 21 0,0
18.10.2020 12:00:00 12,2 10,6 9 5 14 7 NNE 1023,5 0 0,0
18.10.2020 11:00:00 11,5 10,2 10 5 23 13 NNE 1023,1 0 0,1
18.10.2020 10:00:00 10,5 9,5 6 3 15 8 N 1022,9 0 0,0
18.10.2020 09:00:00 10,1 9,1 8 4 15 8 SSW 1022,2 0 0,0
18.10.2020 08:00:00 10,0 9,0 14 8 18 10 SSW 1021,9 0 0,0
18.10.2020 07:00:00 10,0 9,0 10 6 13 7 S 1021,8 0 0,0
18.10.2020 06:00:00 9,8 8,8 11 6 16 8 SSW 1021,9 0 0,0
18.10.2020 05:00:00 9,9 8,8 10 5 14 8 SSW 1022,0 0 0,0
18.10.2020 04:00:00 9,8 8,8 11 6 18 10 SW 1022,2 0 0,0
18.10.2020 03:00:00 10,0 8,9 13 7 16 9 SSW 1021,9 0 0,0
18.10.2020 02:00:00 10,0 8,7 11 6 15 8 SSW 1022,2 0 0,0
18.10.2020 01:00:00 10,0 8,6 12 6 17 9 SSW 1022,1 0 0,0
18.10.2020 00:00:00 10,1 8,5 11 6 16 9 S 1021,9 0 0,0
17.10.2020 23:00:00 10,3 8,5 11 6 14 7 S 1022,1 0 0,0

tt = temperature
td = dewpoint
ff = wind speed
fx = gusts
dd = wind direction
ppp = reduced air pressure
sd = sunshine duration
rr = precipitation

Next stations